• Join FlightAware (Why Join?)
  • Login
  • US Flag 
05:44AM EDT


 

Airport Tracker/Info


-or-


 

Live Flight TrackerFlight Track Log ✈ EGF2746 ✈ 07-May-2013 ✈ KDFW - KCID

Flight Track Log - Related Links

Times and Time Zones

All times are in EDT time to prevent confusion due to time zone crossing. See the EGF2746 flight status page for this flight to view local times or setup timezone preferences in your user account.

Time Position Orientation Groundspeed Altitude Reporting Facility
EDT Latitude Longitude Course Direction KTS MPH feet Rate Location/Type
10:31AM 32.8833 -97.0500 328° Northwest 174 200 1,400  Level Dallas / Fort Worth TRACON
10:32AM 32.8333 -97.0500 180° South 211 243 3,600 2,520 Climbing Dallas / Fort Worth TRACON
10:33AM 32.7576 -96.8877 79° East  Level FlightAware Approximate
10:33AM 32.7833 -97.0833 209° Southwest 238 274 6,200  Level Dallas / Fort Worth TRACON
10:34AM 32.8163 -96.8067 10° North  Level FlightAware Approximate
10:34AM 32.8000 -97.1500 287° West 272 313 8,200  Level Dallas / Fort Worth TRACON
10:35AM 32.9267 -96.8000 North  Level FlightAware Approximate
10:35AM 32.8833 -97.1500 360° North 293 337 10,300  Level Dallas / Fort Worth TRACON
10:36AM 33.0294 -96.8345 328° Northwest  Level FlightAware Approximate
10:36AM 32.9750 -97.1436 North 332 382 11,500  Level Fort Worth Center
10:37AM 33.0628 -97.1383 North 342 394 12,500 1,140 Climbing Fort Worth Center
10:38AM 33.1753 -97.1306 North 355 409 13,800 1,140 Climbing Fort Worth Center
10:39AM 33.2672 -97.1253 North 361 415 14,800 1,140 Climbing Fort Worth Center
10:40AM 33.3842 -97.1150 North 376 433 16,100 1,200 Climbing Fort Worth Center
10:41AM 33.4781 -97.1072 North 376 433 17,200 1,080 Climbing Fort Worth Center
10:42AM 33.5947 -97.0917 North 381 438 18,300 1,020 Climbing Fort Worth Center
10:43AM 33.6886 -97.0814 North 381 438 19,300 1,140 Climbing Fort Worth Center
10:44AM 33.8078 -97.0661 North 387 445 20,600 1,200 Climbing Fort Worth Center
10:45AM 33.9142 -97.0556 North 387 445 21,800 1,200 Climbing Fort Worth Center
10:46AM 34.0247 -97.0400 North 387 445 23,000 1,200 Climbing Fort Worth Center
10:47AM 34.1353 -97.0272 North 387 445 24,200 1,200 Climbing Fort Worth Center
10:48AM 34.2458 -97.0089 North 387 445 25,400 1,140 Climbing Fort Worth Center
10:49AM 34.3542 -96.9783 13° North 387 445 26,500 1,020 Climbing Fort Worth Center
10:50AM 34.4561 -96.9122 28° Northeast 393 452 27,500 960 Climbing Fort Worth Center
10:51AM 34.5561 -96.8486 28° Northeast 398 458 28,500 960 Climbing Fort Worth Center
10:52AM 34.6622 -96.7850 26° Northeast 409 471 29,500 900 Climbing Fort Worth Center
10:53AM 34.7661 -96.7183 28° Northeast 409 471 30,400 900 Climbing Fort Worth Center
10:54AM 34.8678 -96.6517 28° Northeast 409 471 31,400 960 Climbing Fort Worth Center
10:55AM 34.9739 -96.5850 27° Northeast 414 476 32,400 960 Climbing Fort Worth Center
10:56AM 35.0819 -96.5156 28° Northeast 419 482 33,400 960 Climbing Fort Worth Center
10:57AM 35.1897 -96.4456 28° Northeast 425 489 34,400 900 Climbing Fort Worth Center
10:58AM 35.2978 -96.3783 27° Northeast 425 489 35,200 840 Climbing Fort Worth Center
10:59AM 35.4036 -96.3133 27° Northeast 430 495 36,100 540 Climbing Fort Worth Center
11:01AM 35.6364 -96.1617 28° Northeast 439 505 37,000 240 Climbing Kansas City Center
11:02AM 35.7453 -96.0917 28° Northeast 442 509 37,000  Level Kansas City Center
11:03AM 35.8458 -96.0269 28° Northeast 445 512 37,000  Level Kansas City Center
11:04AM 35.9806 -95.9403 27° Northeast 451 519 37,000  Level Kansas City Center
11:05AM 36.0919 -95.8661 28° Northeast 453 521 37,000  Level Kansas City Center
11:06AM 36.2033 -95.7936 28° Northeast 451 519 37,000  Level Kansas City Center
11:07AM 36.3222 -95.7156 28° Northeast 453 521 37,000  Level Kansas City Center
11:09AM 36.4333 -95.6425 28° Northeast 453 521 37,000  Level Kansas City Center
11:10AM 36.5456 -95.5708 27° Northeast 454 522 37,000  Level Kansas City Center
11:11AM 36.6564 -95.4939 29° Northeast 452 520 37,000  Level Kansas City Center
11:12AM 36.7683 -95.4192 28° Northeast 452 520 37,000  Level Kansas City Center
11:13AM 36.8800 -95.3453 28° Northeast 452 520 37,000  Level Kansas City Center
11:14AM 37.0128 -95.2536 29° Northeast 452 520 37,000  Level Kansas City Center
11:15AM 37.1253 -95.1811 27° Northeast 452 520 37,000  Level Kansas City Center
11:16AM 37.2369 -95.1067 28° Northeast 453 521 37,000  Level Kansas City Center
11:17AM 37.3492 -95.0314 28° Northeast 454 522 37,000  Level Kansas City Center
11:18AM 37.4606 -94.9544 29° Northeast 455 524 37,000  Level Kansas City Center
11:19AM 37.5731 -94.8764 29° Northeast 458 527 37,000  Level Kansas City Center
11:20AM 37.6911 -94.7956 28° Northeast 456 525 37,000  Level Kansas City Center
11:21AM 37.8117 -94.7119 29° Northeast 446 513 37,000  Level Kansas City Center
11:22AM 37.9125 -94.6436 28° Northeast 436 502 37,000  Level Kansas City Center
11:23AM 38.0294 -94.5617 29° Northeast 432 497 37,000  Level Kansas City Center
11:24AM 38.1300 -94.4928 28° Northeast 430 495 37,000  Level Kansas City Center
11:25AM 38.2439 -94.4114 29° Northeast 425 489 37,000  Level Kansas City Center
11:26AM 38.3433 -94.3425 29° Northeast 425 489 37,000  Level Kansas City Center
11:27AM 38.4575 -94.2628 29° Northeast 420 483 37,000  Level Kansas City Center
11:28AM 38.5550 -94.1947 29° Northeast 417 480 37,000  Level Kansas City Center
11:29AM 38.6686 -94.1142 29° Northeast 419 482 37,000  Level Kansas City Center
11:30AM 38.7689 -94.0442 29° Northeast 426 490 37,000  Level Kansas City Center
11:31AM 38.8731 -93.9692 29° Northeast 443 510 37,000  Level Kansas City Center
11:32AM 38.9947 -93.8822 29° Northeast 448 516 37,000  Level Kansas City Center
11:33AM 39.0961 -93.8094 29° Northeast 440 506 37,000  Level Kansas City Center
11:34AM 39.2144 -93.7253 29° Northeast 436 502 37,000  Level Kansas City Center
11:35AM 39.3158 -93.6528 29° Northeast 437 503 37,000  Level Kansas City Center
11:36AM 39.4178 -93.5783 29° Northeast 428 493 37,000 -300 Level Kansas City Center
11:37AM 39.5431 -93.4892 29° Northeast 431 496 36,400 -1,020 Descending Kansas City Center
11:39AM 39.6428 -93.4108 31° Northeast 427 491 35,000 -1,440 Descending Kansas City Center
11:40AM 39.7475 -93.3400 27° Northeast 424 488 33,500 -1,020 Descending Kansas City Center
11:41AM 39.8500 -93.2639 30° Northeast 427 491 33,000 -300 Descending Kansas City Center
11:42AM 39.9506 -93.1886 30° Northeast 421 484 33,000  Level Kansas City Center
11:43AM 40.0681 -93.1014 30° Northeast 410 472 33,000  Level Kansas City Center
11:44AM 40.1608 -93.0358 28° Northeast 417 480 33,000 -60 Level Kansas City Center
11:45AM 40.2708 -92.9497 31° Northeast 414 476 32,900 -480 Descending Kansas City Center
11:46AM 40.3703 -92.8764 29° Northeast 425 489 32,000 -960 Descending Kansas City Center
11:47AM 40.4872 -92.7886 30° Northeast 431 496 30,900 -1,020 Descending Kansas City Center
11:48AM 40.5883 -92.7131 30° Northeast 435 501 30,000 -1,380 Descending Kansas City Center
11:49AM 40.6858 -92.6369 31° Northeast 436 502 28,100 -2,340 Descending Kansas City Center
11:50AM 40.8003 -92.5497 30° Northeast 404 465 25,000 -2,820 Descending Chicago Center
11:51AM 40.8931 -92.4817 29° Northeast 387 445 22,000 -2,940 Descending Chicago Center
11:52AM 40.9819 -92.4128 30° Northeast 375 432 19,000 -3,120 Descending Chicago Center
11:53AM 41.0864 -92.3331 30° Northeast 364 419 15,600 -2,940 Descending Chicago Center
11:54AM 41.1683 -92.2700 30° Northeast 348 400 13,000 -2,040 Descending Chicago Center
11:55AM 41.2422 -92.2131 30° Northeast 325 374 11,500 -1,080 Descending Chicago Center
11:56AM 41.3150 -92.1569 30° Northeast 310 357 10,800 -1,200 Descending Chicago Center
11:57AM 41.4028 -92.1094 22° Northeast 288 331 9,100 -1,500 Descending Chicago Center
11:58AM 41.4744 -92.0708 22° Northeast 282 325 7,800 -1,260 Descending Chicago Center
11:59AM 41.5408 -92.0289 25° Northeast 271 312 6,600 -1,080 Descending Chicago Center
12:00PM 41.6092 -91.9933 21° North 267 307 5,600 -840 Descending Chicago Center
12:01PM 41.6758 -91.9567 22° Northeast 263 303 4,900 -660 Descending Chicago Center
12:02PM 41.7550 -91.9114 23° Northeast 262 302 4,300 -600 Descending Chicago Center